sensor_id;sensor_type;location;lat;lon;timestamp;P1;durP1;ratioP1;P2;durP2;ratioP2
15449;SDS011;7826;49.784;9.934;2023-02-23T00:00:24;8.53;;;5.27;;
15449;SDS011;7826;49.784;9.934;2023-02-23T00:02:53;6.67;;;4.60;;
15449;SDS011;7826;49.784;9.934;2023-02-23T00:05:24;6.10;;;4.90;;
15449;SDS011;7826;49.784;9.934;2023-02-23T00:07:51;7.73;;;4.60;;
15449;SDS011;7826;49.784;9.934;2023-02-23T00:10:18;9.13;;;4.40;;
15449;SDS011;7826;49.784;9.934;2023-02-23T00:12:46;8.43;;;5.13;;
15449;SDS011;7826;49.784;9.934;2023-02-23T00:15:15;7.63;;;4.50;;
15449;SDS011;7826;49.784;9.934;2023-02-23T00:17:42;8.07;;;5.00;;
15449;SDS011;7826;49.784;9.934;2023-02-23T00:20:09;5.37;;;4.70;;
15449;SDS011;7826;49.784;9.934;2023-02-23T00:22:39;6.97;;;4.13;;
15449;SDS011;7826;49.784;9.934;2023-02-23T00:25:06;7.97;;;4.57;;
15449;SDS011;7826;49.784;9.934;2023-02-23T00:27:35;6.93;;;4.83;;
15449;SDS011;7826;49.784;9.934;2023-02-23T00:30:03;6.03;;;4.57;;
15449;SDS011;7826;49.784;9.934;2023-02-23T00:32:31;6.67;;;4.73;;
15449;SDS011;7826;49.784;9.934;2023-02-23T00:34:59;7.57;;;4.77;;
15449;SDS011;7826;49.784;9.934;2023-02-23T00:37:25;8.37;;;4.73;;
15449;SDS011;7826;49.784;9.934;2023-02-23T00:39:53;5.23;;;4.43;;
15449;SDS011;7826;49.784;9.934;2023-02-23T00:42:21;10.23;;;5.17;;
15449;SDS011;7826;49.784;9.934;2023-02-23T00:44:48;7.10;;;5.00;;
15449;SDS011;7826;49.784;9.934;2023-02-23T00:47:15;5.37;;;4.50;;
15449;SDS011;7826;49.784;9.934;2023-02-23T00:49:42;6.90;;;4.97;;
15449;SDS011;7826;49.784;9.934;2023-02-23T00:52:10;8.10;;;4.73;;
15449;SDS011;7826;49.784;9.934;2023-02-23T00:54:39;7.33;;;5.27;;
15449;SDS011;7826;49.784;9.934;2023-02-23T00:57:05;7.70;;;4.83;;
15449;SDS011;7826;49.784;9.934;2023-02-23T00:59:32;8.23;;;4.47;;
15449;SDS011;7826;49.784;9.934;2023-02-23T01:01:58;6.80;;;5.07;;
15449;SDS011;7826;49.784;9.934;2023-02-23T01:04:24;7.03;;;5.27;;
15449;SDS011;7826;49.784;9.934;2023-02-23T01:06:50;8.63;;;5.13;;
15449;SDS011;7826;49.784;9.934;2023-02-23T01:09:16;8.60;;;5.37;;
15449;SDS011;7826;49.784;9.934;2023-02-23T01:11:52;7.50;;;4.77;;
15449;SDS011;7826;49.784;9.934;2023-02-23T01:14:21;9.83;;;5.70;;
15449;SDS011;7826;49.784;9.934;2023-02-23T01:16:48;7.43;;;5.20;;
15449;SDS011;7826;49.784;9.934;2023-02-23T01:19:14;11.57;;;5.53;;
15449;SDS011;7826;49.784;9.934;2023-02-23T01:21:41;9.67;;;5.80;;
15449;SDS011;7826;49.784;9.934;2023-02-23T01:24:07;9.20;;;5.20;;
15449;SDS011;7826;49.784;9.934;2023-02-23T01:26:35;6.77;;;4.37;;
15449;SDS011;7826;49.784;9.934;2023-02-23T01:29:07;6.50;;;4.60;;
15449;SDS011;7826;49.784;9.934;2023-02-23T01:31:39;6.73;;;5.20;;
15449;SDS011;7826;49.784;9.934;2023-02-23T01:34:08;7.73;;;4.93;;
15449;SDS011;7826;49.784;9.934;2023-02-23T01:36:37;9.17;;;5.30;;
15449;SDS011;7826;49.784;9.934;2023-02-23T01:39:04;7.77;;;4.90;;
15449;SDS011;7826;49.784;9.934;2023-02-23T01:41:33;8.73;;;5.17;;
15449;SDS011;7826;49.784;9.934;2023-02-23T01:44:05;7.83;;;5.13;;
15449;SDS011;7826;49.784;9.934;2023-02-23T01:46:37;5.70;;;4.50;;
15449;SDS011;7826;49.784;9.934;2023-02-23T01:49:05;8.13;;;5.70;;
15449;SDS011;7826;49.784;9.934;2023-02-23T01:51:36;6.43;;;4.70;;
15449;SDS011;7826;49.784;9.934;2023-02-23T01:56:41;6.60;;;4.60;;
15449;SDS011;7826;49.784;9.934;2023-02-23T01:59:11;7.30;;;5.00;;
15449;SDS011;7826;49.784;9.934;2023-02-23T02:01:40;7.50;;;4.63;;
15449;SDS011;7826;49.784;9.934;2023-02-23T02:04:08;7.17;;;4.80;;
15449;SDS011;7826;49.784;9.934;2023-02-23T02:06:40;7.33;;;5.03;;
15449;SDS011;7826;49.784;9.934;2023-02-23T02:09:10;11.33;;;5.07;;
15449;SDS011;7826;49.784;9.934;2023-02-23T02:11:44;8.90;;;5.30;;
15449;SDS011;7826;49.784;9.934;2023-02-23T02:28:07;9.83;;;6.37;;
15449;SDS011;7826;49.784;9.934;2023-02-23T02:30:47;12.40;;;6.50;;
15449;SDS011;7826;49.784;9.934;2023-02-23T02:39:11;10.47;;;6.17;;
15449;SDS011;7826;49.784;9.934;2023-02-23T02:44:43;9.70;;;6.60;;
15449;SDS011;7826;49.784;9.934;2023-02-23T02:47:25;11.10;;;7.50;;
15449;SDS011;7826;49.784;9.934;2023-02-23T02:50:06;14.33;;;6.27;;
15449;SDS011;7826;49.784;9.934;2023-02-23T02:52:38;11.73;;;7.07;;
15449;SDS011;7826;49.784;9.934;2023-02-23T02:55:20;10.70;;;6.87;;
15449;SDS011;7826;49.784;9.934;2023-02-23T02:57:50;14.73;;;7.43;;
15449;SDS011;7826;49.784;9.934;2023-02-23T03:00:28;11.50;;;6.97;;
15449;SDS011;7826;49.784;9.934;2023-02-23T03:03:28;12.10;;;6.10;;
15449;SDS011;7826;49.784;9.934;2023-02-23T03:06:25;11.97;;;7.00;;
15449;SDS011;7826;49.784;9.934;2023-02-23T03:21:24;14.60;;;7.47;;
15449;SDS011;7826;49.784;9.934;2023-02-23T03:24:18;13.63;;;7.60;;
15449;SDS011;7826;49.784;9.934;2023-02-23T03:27:19;10.20;;;6.50;;
15449;SDS011;7826;49.784;9.934;2023-02-23T03:30:36;11.37;;;7.33;;
15449;SDS011;7826;49.784;9.934;2023-02-23T03:37:19;9.13;;;6.47;;
15449;SDS011;7826;49.784;9.934;2023-02-23T03:43:15;10.13;;;6.90;;
15449;SDS011;7826;49.784;9.934;2023-02-23T03:46:03;11.30;;;6.23;;
15449;SDS011;7826;49.784;9.934;2023-02-23T03:48:51;11.83;;;7.57;;
15449;SDS011;7826;49.784;9.934;2023-02-23T03:51:38;10.83;;;6.80;;
15449;SDS011;7826;49.784;9.934;2023-02-23T03:54:32;11.40;;;7.50;;
15449;SDS011;7826;49.784;9.934;2023-02-23T03:57:23;12.40;;;7.07;;
15449;SDS011;7826;49.784;9.934;2023-02-23T04:00:11;13.77;;;7.73;;
15449;SDS011;7826;49.784;9.934;2023-02-23T04:03:01;13.63;;;7.70;;
15449;SDS011;7826;49.784;9.934;2023-02-23T04:05:49;13.60;;;8.43;;
15449;SDS011;7826;49.784;9.934;2023-02-23T04:08:36;12.50;;;8.10;;
15449;SDS011;7826;49.784;9.934;2023-02-23T04:11:26;13.80;;;8.13;;
15449;SDS011;7826;49.784;9.934;2023-02-23T04:14:22;15.57;;;8.27;;
15449;SDS011;7826;49.784;9.934;2023-02-23T04:16:55;15.47;;;8.50;;
15449;SDS011;7826;49.784;9.934;2023-02-23T04:19:25;15.53;;;8.33;;
15449;SDS011;7826;49.784;9.934;2023-02-23T04:21:53;23.93;;;9.40;;
15449;SDS011;7826;49.784;9.934;2023-02-23T04:24:19;17.13;;;9.87;;
15449;SDS011;7826;49.784;9.934;2023-02-23T04:26:45;17.40;;;8.73;;
15449;SDS011;7826;49.784;9.934;2023-02-23T04:29:11;17.87;;;10.13;;
15449;SDS011;7826;49.784;9.934;2023-02-23T04:31:38;17.03;;;10.10;;
15449;SDS011;7826;49.784;9.934;2023-02-23T04:34:06;20.57;;;10.10;;
15449;SDS011;7826;49.784;9.934;2023-02-23T04:36:33;16.20;;;9.50;;
15449;SDS011;7826;49.784;9.934;2023-02-23T04:38:59;18.53;;;10.17;;
15449;SDS011;7826;49.784;9.934;2023-02-23T04:41:25;17.40;;;9.83;;
15449;SDS011;7826;49.784;9.934;2023-02-23T04:43:51;21.03;;;10.37;;
15449;SDS011;7826;49.784;9.934;2023-02-23T04:46:18;18.40;;;10.53;;
15449;SDS011;7826;49.784;9.934;2023-02-23T04:48:44;22.33;;;11.37;;
15449;SDS011;7826;49.784;9.934;2023-02-23T04:51:10;22.53;;;9.70;;
15449;SDS011;7826;49.784;9.934;2023-02-23T04:53:36;23.93;;;10.47;;
15449;SDS011;7826;49.784;9.934;2023-02-23T04:56:03;18.03;;;9.73;;
15449;SDS011;7826;49.784;9.934;2023-02-23T04:58:48;16.57;;;9.63;;
15449;SDS011;7826;49.784;9.934;2023-02-23T05:01:33;16.43;;;9.50;;
15449;SDS011;7826;49.784;9.934;2023-02-23T05:04:01;14.60;;;9.57;;
15449;SDS011;7826;49.784;9.934;2023-02-23T05:06:29;17.37;;;9.27;;
15449;SDS011;7826;49.784;9.934;2023-02-23T05:08:56;17.83;;;9.97;;
15449;SDS011;7826;49.784;9.934;2023-02-23T05:11:22;16.23;;;9.27;;
15449;SDS011;7826;49.784;9.934;2023-02-23T05:13:49;24.60;;;11.33;;
15449;SDS011;7826;49.784;9.934;2023-02-23T05:16:16;18.50;;;10.27;;
15449;SDS011;7826;49.784;9.934;2023-02-23T05:18:42;16.67;;;9.80;;
15449;SDS011;7826;49.784;9.934;2023-02-23T05:21:09;17.00;;;10.27;;
15449;SDS011;7826;49.784;9.934;2023-02-23T05:23:36;21.00;;;11.43;;
15449;SDS011;7826;49.784;9.934;2023-02-23T05:26:04;20.50;;;11.73;;
15449;SDS011;7826;49.784;9.934;2023-02-23T05:28:33;19.67;;;11.13;;
15449;SDS011;7826;49.784;9.934;2023-02-23T05:31:00;20.30;;;11.50;;
15449;SDS011;7826;49.784;9.934;2023-02-23T05:33:31;19.00;;;10.70;;
15449;SDS011;7826;49.784;9.934;2023-02-23T05:35:58;20.70;;;11.73;;
15449;SDS011;7826;49.784;9.934;2023-02-23T05:38:25;21.57;;;11.63;;
15449;SDS011;7826;49.784;9.934;2023-02-23T05:40:52;18.13;;;10.37;;
15449;SDS011;7826;49.784;9.934;2023-02-23T05:43:18;23.20;;;11.43;;
15449;SDS011;7826;49.784;9.934;2023-02-23T05:45:44;22.13;;;11.90;;
15449;SDS011;7826;49.784;9.934;2023-02-23T05:48:11;21.57;;;12.80;;
15449;SDS011;7826;49.784;9.934;2023-02-23T05:50:38;20.70;;;11.23;;
15449;SDS011;7826;49.784;9.934;2023-02-23T05:53:04;23.30;;;13.10;;
15449;SDS011;7826;49.784;9.934;2023-02-23T05:55:30;26.27;;;12.80;;
15449;SDS011;7826;49.784;9.934;2023-02-23T05:57:57;28.10;;;14.07;;
15449;SDS011;7826;49.784;9.934;2023-02-23T06:00:23;24.30;;;12.53;;
15449;SDS011;7826;49.784;9.934;2023-02-23T06:02:49;21.57;;;12.07;;
15449;SDS011;7826;49.784;9.934;2023-02-23T06:05:17;23.53;;;13.73;;
15449;SDS011;7826;49.784;9.934;2023-02-23T06:07:43;23.83;;;13.00;;
15449;SDS011;7826;49.784;9.934;2023-02-23T06:10:10;25.33;;;14.00;;
15449;SDS011;7826;49.784;9.934;2023-02-23T06:12:36;23.77;;;13.37;;
15449;SDS011;7826;49.784;9.934;2023-02-23T06:15:02;28.90;;;13.67;;
15449;SDS011;7826;49.784;9.934;2023-02-23T06:17:29;26.03;;;14.13;;
15449;SDS011;7826;49.784;9.934;2023-02-23T06:19:55;25.87;;;13.57;;
15449;SDS011;7826;49.784;9.934;2023-02-23T06:22:23;21.07;;;12.47;;
15449;SDS011;7826;49.784;9.934;2023-02-23T06:24:49;25.73;;;13.50;;
15449;SDS011;7826;49.784;9.934;2023-02-23T06:27:15;19.43;;;12.13;;
15449;SDS011;7826;49.784;9.934;2023-02-23T06:29:41;27.67;;;12.97;;
15449;SDS011;7826;49.784;9.934;2023-02-23T06:32:08;28.03;;;12.67;;
15449;SDS011;7826;49.784;9.934;2023-02-23T06:34:34;21.03;;;12.83;;
15449;SDS011;7826;49.784;9.934;2023-02-23T06:37:01;22.73;;;13.10;;
15449;SDS011;7826;49.784;9.934;2023-02-23T06:39:27;25.87;;;13.93;;
15449;SDS011;7826;49.784;9.934;2023-02-23T06:41:53;27.90;;;13.53;;
15449;SDS011;7826;49.784;9.934;2023-02-23T06:44:19;25.70;;;13.20;;
15449;SDS011;7826;49.784;9.934;2023-02-23T06:46:47;25.80;;;13.77;;
15449;SDS011;7826;49.784;9.934;2023-02-23T06:49:13;24.27;;;13.30;;
15449;SDS011;7826;49.784;9.934;2023-02-23T06:51:39;26.07;;;14.07;;
15449;SDS011;7826;49.784;9.934;2023-02-23T06:54:06;27.27;;;14.47;;
15449;SDS011;7826;49.784;9.934;2023-02-23T06:56:32;27.07;;;13.80;;
15449;SDS011;7826;49.784;9.934;2023-02-23T06:58:58;26.57;;;13.27;;
15449;SDS011;7826;49.784;9.934;2023-02-23T07:01:26;29.03;;;14.47;;
15449;SDS011;7826;49.784;9.934;2023-02-23T07:03:52;28.77;;;15.53;;
15449;SDS011;7826;49.784;9.934;2023-02-23T07:06:19;26.30;;;14.20;;
15449;SDS011;7826;49.784;9.934;2023-02-23T07:08:45;28.17;;;13.73;;
15449;SDS011;7826;49.784;9.934;2023-02-23T07:11:12;27.97;;;14.97;;
15449;SDS011;7826;49.784;9.934;2023-02-23T07:13:40;26.37;;;13.07;;
15449;SDS011;7826;49.784;9.934;2023-02-23T07:16:07;28.17;;;15.37;;
15449;SDS011;7826;49.784;9.934;2023-02-23T07:18:35;27.30;;;13.83;;
15449;SDS011;7826;49.784;9.934;2023-02-23T07:21:01;30.90;;;14.70;;
15449;SDS011;7826;49.784;9.934;2023-02-23T07:23:27;25.10;;;14.10;;
15449;SDS011;7826;49.784;9.934;2023-02-23T07:25:54;24.00;;;13.40;;
15449;SDS011;7826;49.784;9.934;2023-02-23T07:28:21;28.07;;;14.97;;
15449;SDS011;7826;49.784;9.934;2023-02-23T07:30:47;30.97;;;14.80;;
15449;SDS011;7826;49.784;9.934;2023-02-23T07:33:17;29.87;;;13.73;;
15449;SDS011;7826;49.784;9.934;2023-02-23T07:35:43;28.33;;;14.97;;
15449;SDS011;7826;49.784;9.934;2023-02-23T07:38:10;26.77;;;14.60;;
15449;SDS011;7826;49.784;9.934;2023-02-23T07:40:37;31.50;;;16.03;;
15449;SDS011;7826;49.784;9.934;2023-02-23T07:43:04;26.00;;;13.80;;
15449;SDS011;7826;49.784;9.934;2023-02-23T07:45:31;28.77;;;15.63;;
15449;SDS011;7826;49.784;9.934;2023-02-23T07:47:57;28.93;;;15.37;;
15449;SDS011;7826;49.784;9.934;2023-02-23T07:50:24;28.50;;;14.37;;
15449;SDS011;7826;49.784;9.934;2023-02-23T07:52:51;27.93;;;15.83;;
15449;SDS011;7826;49.784;9.934;2023-02-23T07:55:17;28.13;;;15.20;;
15449;SDS011;7826;49.784;9.934;2023-02-23T07:57:44;28.00;;;14.63;;
15449;SDS011;7826;49.784;9.934;2023-02-23T08:00:10;30.37;;;15.93;;
15449;SDS011;7826;49.784;9.934;2023-02-23T08:02:37;34.50;;;15.40;;
15449;SDS011;7826;49.784;9.934;2023-02-23T08:05:03;30.37;;;14.63;;
15449;SDS011;7826;49.784;9.934;2023-02-23T08:07:32;29.87;;;16.20;;
15449;SDS011;7826;49.784;9.934;2023-02-23T08:09:58;32.43;;;15.90;;
15449;SDS011;7826;49.784;9.934;2023-02-23T08:12:25;35.30;;;16.23;;
15449;SDS011;7826;49.784;9.934;2023-02-23T08:14:59;28.60;;;16.17;;
15449;SDS011;7826;49.784;9.934;2023-02-23T08:17:27;29.80;;;14.13;;
15449;SDS011;7826;49.784;9.934;2023-02-23T08:19:55;29.03;;;15.63;;
15449;SDS011;7826;49.784;9.934;2023-02-23T08:22:21;29.37;;;14.80;;
15449;SDS011;7826;49.784;9.934;2023-02-23T08:24:49;27.67;;;15.03;;
15449;SDS011;7826;49.784;9.934;2023-02-23T08:27:15;25.87;;;14.73;;
15449;SDS011;7826;49.784;9.934;2023-02-23T08:29:41;28.23;;;14.47;;
15449;SDS011;7826;49.784;9.934;2023-02-23T08:32:07;29.63;;;15.03;;
15449;SDS011;7826;49.784;9.934;2023-02-23T08:34:43;24.73;;;14.77;;
15449;SDS011;7826;49.784;9.934;2023-02-23T08:37:10;25.80;;;14.00;;
15449;SDS011;7826;49.784;9.934;2023-02-23T08:39:36;24.03;;;13.83;;
15449;SDS011;7826;49.784;9.934;2023-02-23T08:42:03;27.40;;;13.90;;
15449;SDS011;7826;49.784;9.934;2023-02-23T08:44:29;28.70;;;14.67;;
15449;SDS011;7826;49.784;9.934;2023-02-23T08:46:56;28.33;;;13.90;;
15449;SDS011;7826;49.784;9.934;2023-02-23T08:49:23;28.70;;;14.47;;
15449;SDS011;7826;49.784;9.934;2023-02-23T08:51:50;25.00;;;14.70;;
15449;SDS011;7826;49.784;9.934;2023-02-23T08:54:16;24.80;;;14.97;;
15449;SDS011;7826;49.784;9.934;2023-02-23T08:56:43;26.23;;;14.43;;
15449;SDS011;7826;49.784;9.934;2023-02-23T08:59:10;30.80;;;14.40;;
15449;SDS011;7826;49.784;9.934;2023-02-23T09:01:37;23.80;;;14.50;;
15449;SDS011;7826;49.784;9.934;2023-02-23T09:04:04;24.10;;;13.63;;
15449;SDS011;7826;49.784;9.934;2023-02-23T09:06:31;27.87;;;13.80;;
15449;SDS011;7826;49.784;9.934;2023-02-23T09:08:59;23.83;;;13.67;;
15449;SDS011;7826;49.784;9.934;2023-02-23T09:11:26;25.33;;;13.23;;
15449;SDS011;7826;49.784;9.934;2023-02-23T09:13:52;20.80;;;12.73;;
15449;SDS011;7826;49.784;9.934;2023-02-23T09:16:19;24.73;;;13.63;;
15449;SDS011;7826;49.784;9.934;2023-02-23T09:18:45;23.93;;;13.83;;
15449;SDS011;7826;49.784;9.934;2023-02-23T09:21:16;22.23;;;13.40;;
15449;SDS011;7826;49.784;9.934;2023-02-23T09:23:47;22.43;;;12.93;;
15449;SDS011;7826;49.784;9.934;2023-02-23T09:26:15;24.63;;;13.00;;
15449;SDS011;7826;49.784;9.934;2023-02-23T09:28:46;20.30;;;12.37;;
15449;SDS011;7826;49.784;9.934;2023-02-23T09:31:14;24.27;;;12.77;;
15449;SDS011;7826;49.784;9.934;2023-02-23T09:33:42;23.53;;;13.07;;
15449;SDS011;7826;49.784;9.934;2023-02-23T09:36:10;23.67;;;11.80;;
15449;SDS011;7826;49.784;9.934;2023-02-23T09:38:47;25.73;;;13.33;;
15449;SDS011;7826;49.784;9.934;2023-02-23T09:46:22;26.13;;;13.77;;
15449;SDS011;7826;49.784;9.934;2023-02-23T09:48:59;20.53;;;11.57;;
15449;SDS011;7826;49.784;9.934;2023-02-23T09:51:29;22.90;;;12.33;;
15449;SDS011;7826;49.784;9.934;2023-02-23T09:54:02;20.57;;;11.70;;
15449;SDS011;7826;49.784;9.934;2023-02-23T09:56:50;19.40;;;11.40;;
15449;SDS011;7826;49.784;9.934;2023-02-23T09:59:18;21.27;;;11.97;;
15449;SDS011;7826;49.784;9.934;2023-02-23T10:04:23;16.60;;;10.30;;
15449;SDS011;7826;49.784;9.934;2023-02-23T10:07:03;17.73;;;9.60;;
15449;SDS011;7826;49.784;9.934;2023-02-23T10:18:15;17.10;;;9.07;;
15449;SDS011;7826;49.784;9.934;2023-02-23T10:23:50;16.73;;;9.37;;
15449;SDS011;7826;49.784;9.934;2023-02-23T10:26:27;15.73;;;8.73;;
15449;SDS011;7826;49.784;9.934;2023-02-23T10:29:06;13.17;;;8.00;;
15449;SDS011;7826;49.784;9.934;2023-02-23T10:34:53;10.27;;;6.60;;
15449;SDS011;7826;49.784;9.934;2023-02-23T10:37:22;12.53;;;7.30;;
15449;SDS011;7826;49.784;9.934;2023-02-23T10:39:49;12.47;;;6.83;;
15449;SDS011;7826;49.784;9.934;2023-02-23T10:42:24;9.80;;;6.33;;
15449;SDS011;7826;49.784;9.934;2023-02-23T10:44:57;10.33;;;6.70;;
15449;SDS011;7826;49.784;9.934;2023-02-23T10:47:26;11.33;;;6.73;;
15449;SDS011;7826;49.784;9.934;2023-02-23T10:49:57;10.73;;;7.17;;
15449;SDS011;7826;49.784;9.934;2023-02-23T10:55:21;10.93;;;6.87;;
15449;SDS011;7826;49.784;9.934;2023-02-23T10:57:51;8.50;;;6.47;;
15449;SDS011;7826;49.784;9.934;2023-02-23T11:03:29;9.33;;;5.13;;
15449;SDS011;7826;49.784;9.934;2023-02-23T11:06:00;12.77;;;5.80;;
15449;SDS011;7826;49.784;9.934;2023-02-23T11:08:30;9.00;;;6.00;;
15449;SDS011;7826;49.784;9.934;2023-02-23T11:13:28;8.27;;;4.87;;
15449;SDS011;7826;49.784;9.934;2023-02-23T11:16:05;10.07;;;6.13;;
15449;SDS011;7826;49.784;9.934;2023-02-23T11:18:39;8.60;;;5.47;;
15449;SDS011;7826;49.784;9.934;2023-02-23T11:21:10;7.90;;;5.27;;
15449;SDS011;7826;49.784;9.934;2023-02-23T11:23:38;11.23;;;8.40;;
15449;SDS011;7826;49.784;9.934;2023-02-23T11:26:18;9.53;;;8.00;;
15449;SDS011;7826;49.784;9.934;2023-02-23T11:28:49;10.43;;;7.90;;
15449;SDS011;7826;49.784;9.934;2023-02-23T11:31:19;9.57;;;7.80;;
15449;SDS011;7826;49.784;9.934;2023-02-23T11:33:48;13.87;;;7.27;;
15449;SDS011;7826;49.784;9.934;2023-02-23T11:36:34;12.23;;;6.50;;
15449;SDS011;7826;49.784;9.934;2023-02-23T11:39:18;11.40;;;6.63;;
15449;SDS011;7826;49.784;9.934;2023-02-23T11:44:39;8.40;;;7.60;;
15449;SDS011;7826;49.784;9.934;2023-02-23T11:47:12;8.30;;;6.93;;
15449;SDS011;7826;49.784;9.934;2023-02-23T11:49:44;8.30;;;6.50;;
15449;SDS011;7826;49.784;9.934;2023-02-23T11:52:16;8.70;;;6.43;;
15449;SDS011;7826;49.784;9.934;2023-02-23T11:54:54;7.87;;;6.50;;
15449;SDS011;7826;49.784;9.934;2023-02-23T11:57:39;5.97;;;5.47;;
15449;SDS011;7826;49.784;9.934;2023-02-23T12:00:11;6.43;;;5.83;;
15449;SDS011;7826;49.784;9.934;2023-02-23T12:02:49;6.97;;;4.93;;
15449;SDS011;7826;49.784;9.934;2023-02-23T12:05:21;5.73;;;4.27;;
15449;SDS011;7826;49.784;9.934;2023-02-23T12:08:10;6.17;;;5.57;;
15449;SDS011;7826;49.784;9.934;2023-02-23T12:10:46;7.77;;;4.53;;
15449;SDS011;7826;49.784;9.934;2023-02-23T12:21:18;5.63;;;3.90;;
15449;SDS011;7826;49.784;9.934;2023-02-23T12:24:05;5.87;;;3.90;;
15449;SDS011;7826;49.784;9.934;2023-02-23T12:32:29;6.23;;;4.23;;
15449;SDS011;7826;49.784;9.934;2023-02-23T12:35:13;6.43;;;4.03;;
15449;SDS011;7826;49.784;9.934;2023-02-23T12:40:29;5.87;;;4.00;;
15449;SDS011;7826;49.784;9.934;2023-02-23T12:43:13;8.60;;;4.80;;
15449;SDS011;7826;49.784;9.934;2023-02-23T12:45:58;7.10;;;4.10;;
15449;SDS011;7826;49.784;9.934;2023-02-23T12:48:37;7.13;;;4.47;;
15449;SDS011;7826;49.784;9.934;2023-02-23T12:51:32;7.97;;;4.70;;
15449;SDS011;7826;49.784;9.934;2023-02-23T12:54:03;8.00;;;4.80;;
15449;SDS011;7826;49.784;9.934;2023-02-23T12:56:43;8.03;;;4.77;;
15449;SDS011;7826;49.784;9.934;2023-02-23T13:02:12;8.93;;;4.57;;
15449;SDS011;7826;49.784;9.934;2023-02-23T13:05:18;8.93;;;5.20;;
15449;SDS011;7826;49.784;9.934;2023-02-23T13:13:31;9.23;;;5.10;;
15449;SDS011;7826;49.784;9.934;2023-02-23T13:16:10;8.73;;;5.47;;
15449;SDS011;7826;49.784;9.934;2023-02-23T13:19:02;10.63;;;6.53;;
15449;SDS011;7826;49.784;9.934;2023-02-23T13:24:34;9.60;;;5.60;;
15449;SDS011;7826;49.784;9.934;2023-02-23T13:27:12;8.83;;;5.60;;
15449;SDS011;7826;49.784;9.934;2023-02-23T13:29:45;10.00;;;6.07;;
15449;SDS011;7826;49.784;9.934;2023-02-23T13:32:15;8.13;;;5.40;;
15449;SDS011;7826;49.784;9.934;2023-02-23T13:35:01;9.63;;;5.90;;
15449;SDS011;7826;49.784;9.934;2023-02-23T13:40:13;7.37;;;5.63;;
15449;SDS011;7826;49.784;9.934;2023-02-23T13:43:01;8.27;;;6.10;;
15449;SDS011;7826;49.784;9.934;2023-02-23T13:53:59;7.60;;;5.03;;
15449;SDS011;7826;49.784;9.934;2023-02-23T13:56:30;7.77;;;5.00;;
15449;SDS011;7826;49.784;9.934;2023-02-23T13:59:04;7.97;;;5.53;;
15449;SDS011;7826;49.784;9.934;2023-02-23T14:01:38;8.10;;;5.10;;
15449;SDS011;7826;49.784;9.934;2023-02-23T14:04:24;7.03;;;5.50;;
15449;SDS011;7826;49.784;9.934;2023-02-23T14:07:03;6.30;;;5.07;;
15449;SDS011;7826;49.784;9.934;2023-02-23T14:09:38;6.90;;;5.13;;
15449;SDS011;7826;49.784;9.934;2023-02-23T14:28:42;5.83;;;5.17;;
15449;SDS011;7826;49.784;9.934;2023-02-23T14:41:22;10.10;;;6.30;;
15449;SDS011;7826;49.784;9.934;2023-02-23T14:43:59;8.17;;;6.43;;
15449;SDS011;7826;49.784;9.934;2023-02-23T14:46:48;8.13;;;6.03;;
15449;SDS011;7826;49.784;9.934;2023-02-23T14:49:25;7.73;;;5.57;;
15449;SDS011;7826;49.784;9.934;2023-02-23T14:51:53;6.70;;;5.70;;
15449;SDS011;7826;49.784;9.934;2023-02-23T14:54:24;9.63;;;6.03;;
15449;SDS011;7826;49.784;9.934;2023-02-23T14:57:02;8.17;;;5.57;;
15449;SDS011;7826;49.784;9.934;2023-02-23T14:59:40;9.93;;;5.33;;
15449;SDS011;7826;49.784;9.934;2023-02-23T15:02:09;10.80;;;6.20;;
15449;SDS011;7826;49.784;9.934;2023-02-23T15:04:47;8.07;;;5.37;;
15449;SDS011;7826;49.784;9.934;2023-02-23T15:07:59;7.03;;;5.00;;
15449;SDS011;7826;49.784;9.934;2023-02-23T15:10:06;7.77;;;4.33;;
15449;SDS011;7826;49.784;9.934;2023-02-23T15:12:36;7.97;;;4.60;;
15449;SDS011;7826;49.784;9.934;2023-02-23T15:15:04;7.70;;;4.90;;
15449;SDS011;7826;49.784;9.934;2023-02-23T15:17:37;5.80;;;4.90;;
15449;SDS011;7826;49.784;9.934;2023-02-23T15:20:07;12.73;;;4.90;;
15449;SDS011;7826;49.784;9.934;2023-02-23T15:22:39;9.07;;;4.70;;
15449;SDS011;7826;49.784;9.934;2023-02-23T15:25:17;7.77;;;5.30;;
15449;SDS011;7826;49.784;9.934;2023-02-23T15:27:48;7.47;;;4.87;;
15449;SDS011;7826;49.784;9.934;2023-02-23T15:30:19;7.93;;;5.13;;
15449;SDS011;7826;49.784;9.934;2023-02-23T15:32:45;8.43;;;5.77;;
15449;SDS011;7826;49.784;9.934;2023-02-23T15:35:12;8.40;;;4.87;;
15449;SDS011;7826;49.784;9.934;2023-02-23T15:37:46;8.03;;;5.13;;
15449;SDS011;7826;49.784;9.934;2023-02-23T15:40:15;9.70;;;5.50;;
15449;SDS011;7826;49.784;9.934;2023-02-23T15:42:44;8.37;;;5.50;;
15449;SDS011;7826;49.784;9.934;2023-02-23T15:45:34;8.40;;;5.03;;
15449;SDS011;7826;49.784;9.934;2023-02-23T15:48:17;8.00;;;5.57;;
15449;SDS011;7826;49.784;9.934;2023-02-23T15:50:48;9.20;;;5.30;;
15449;SDS011;7826;49.784;9.934;2023-02-23T15:53:33;9.80;;;5.33;;
15449;SDS011;7826;49.784;9.934;2023-02-23T15:56:03;7.13;;;5.63;;
15449;SDS011;7826;49.784;9.934;2023-02-23T15:58:38;12.00;;;5.00;;
15449;SDS011;7826;49.784;9.934;2023-02-23T16:01:10;7.80;;;5.37;;
15449;SDS011;7826;49.784;9.934;2023-02-23T16:03:45;10.17;;;5.87;;
15449;SDS011;7826;49.784;9.934;2023-02-23T16:06:23;8.93;;;5.57;;
15449;SDS011;7826;49.784;9.934;2023-02-23T16:08:58;9.87;;;5.47;;
15449;SDS011;7826;49.784;9.934;2023-02-23T16:11:47;7.37;;;5.07;;
15449;SDS011;7826;49.784;9.934;2023-02-23T16:14:14;9.53;;;5.13;;
15449;SDS011;7826;49.784;9.934;2023-02-23T16:16:42;8.40;;;4.93;;
15449;SDS011;7826;49.784;9.934;2023-02-23T16:19:11;10.37;;;5.60;;
15449;SDS011;7826;49.784;9.934;2023-02-23T16:21:39;7.83;;;4.77;;
15449;SDS011;7826;49.784;9.934;2023-02-23T16:24:07;9.47;;;5.53;;
15449;SDS011;7826;49.784;9.934;2023-02-23T16:26:44;11.23;;;5.63;;
15449;SDS011;7826;49.784;9.934;2023-02-23T16:29:15;8.00;;;4.93;;
15449;SDS011;7826;49.784;9.934;2023-02-23T16:32:10;11.07;;;5.87;;
15449;SDS011;7826;49.784;9.934;2023-02-23T16:37:17;10.63;;;6.17;;
15449;SDS011;7826;49.784;9.934;2023-02-23T16:39:44;9.03;;;5.80;;
15449;SDS011;7826;49.784;9.934;2023-02-23T16:42:16;8.50;;;5.93;;
15449;SDS011;7826;49.784;9.934;2023-02-23T16:44:45;9.67;;;6.13;;
15449;SDS011;7826;49.784;9.934;2023-02-23T16:49:48;10.50;;;6.00;;
15449;SDS011;7826;49.784;9.934;2023-02-23T16:52:15;9.40;;;6.10;;
15449;SDS011;7826;49.784;9.934;2023-02-23T16:54:44;8.90;;;6.13;;
15449;SDS011;7826;49.784;9.934;2023-02-23T16:57:17;10.83;;;5.63;;
15449;SDS011;7826;49.784;9.934;2023-02-23T16:59:47;11.60;;;6.40;;
15449;SDS011;7826;49.784;9.934;2023-02-23T17:02:15;11.70;;;6.57;;
15449;SDS011;7826;49.784;9.934;2023-02-23T17:04:44;9.77;;;5.73;;
15449;SDS011;7826;49.784;9.934;2023-02-23T17:07:14;12.40;;;6.10;;
15449;SDS011;7826;49.784;9.934;2023-02-23T17:09:42;10.37;;;6.73;;
15449;SDS011;7826;49.784;9.934;2023-02-23T17:12:13;13.17;;;6.43;;
15449;SDS011;7826;49.784;9.934;2023-02-23T17:14:46;10.17;;;6.63;;
15449;SDS011;7826;49.784;9.934;2023-02-23T17:17:14;9.77;;;6.20;;
15449;SDS011;7826;49.784;9.934;2023-02-23T17:19:42;11.03;;;5.97;;
15449;SDS011;7826;49.784;9.934;2023-02-23T17:22:10;9.93;;;6.40;;
15449;SDS011;7826;49.784;9.934;2023-02-23T17:24:37;10.97;;;6.87;;
15449;SDS011;7826;49.784;9.934;2023-02-23T17:27:04;11.40;;;6.53;;
15449;SDS011;7826;49.784;9.934;2023-02-23T17:29:31;13.10;;;7.10;;
15449;SDS011;7826;49.784;9.934;2023-02-23T17:31:57;10.10;;;6.67;;
15449;SDS011;7826;49.784;9.934;2023-02-23T17:34:25;11.77;;;6.40;;
15449;SDS011;7826;49.784;9.934;2023-02-23T17:36:51;12.37;;;6.87;;
15449;SDS011;7826;49.784;9.934;2023-02-23T17:39:18;11.20;;;7.13;;
15449;SDS011;7826;49.784;9.934;2023-02-23T17:41:44;11.37;;;6.97;;
15449;SDS011;7826;49.784;9.934;2023-02-23T17:44:11;10.17;;;7.37;;